createdAt,value
2019-01-15T00:01:10.747Z,2.70
2019-01-15T00:03:39.510Z,2.70
2019-01-15T00:06:08.443Z,2.80
2019-01-15T00:08:37.406Z,2.80
2019-01-15T00:11:06.086Z,2.80
2019-01-15T00:13:35.013Z,2.80
2019-01-15T00:16:04.264Z,2.80
2019-01-15T00:18:33.214Z,2.90
2019-01-15T00:21:02.014Z,2.90
2019-01-15T00:23:30.814Z,2.90
2019-01-15T00:25:59.702Z,3.00
2019-01-15T00:28:28.491Z,3.00
2019-01-15T00:30:57.560Z,3.00
2019-01-15T00:33:26.256Z,3.00
2019-01-15T00:35:55.270Z,3.00
2019-01-15T00:38:23.990Z,2.90
2019-01-15T00:40:53.151Z,3.00
2019-01-15T00:43:21.821Z,3.00
2019-01-15T00:45:50.842Z,3.00
2019-01-15T00:48:20.582Z,3.00
2019-01-15T00:50:50.743Z,3.00
2019-01-15T00:53:19.461Z,3.00
2019-01-15T00:55:48.128Z,3.00
2019-01-15T00:58:17.066Z,3.00
2019-01-15T01:00:45.858Z,2.90
2019-01-15T01:03:14.620Z,3.00
2019-01-15T01:05:43.378Z,2.90
2019-01-15T01:08:12.179Z,2.90
2019-01-15T01:10:41.042Z,2.90
2019-01-15T01:13:10.159Z,2.90
2019-01-15T01:15:39.279Z,2.90
2019-01-15T01:18:07.934Z,3.00
2019-01-15T01:20:37.217Z,3.00
2019-01-15T01:23:06.154Z,3.00
2019-01-15T01:25:34.849Z,3.00
2019-01-15T01:28:03.585Z,2.90
2019-01-15T01:30:32.543Z,2.90
2019-01-15T01:33:01.306Z,2.90
2019-01-15T01:35:29.995Z,2.90
2019-01-15T01:37:58.699Z,2.90
2019-01-15T01:40:27.660Z,2.90
2019-01-15T01:42:57.055Z,2.90
2019-01-15T01:45:25.811Z,3.00
2019-01-15T01:47:54.467Z,3.00
2019-01-15T01:50:23.472Z,3.00
2019-01-15T01:52:52.583Z,3.00
2019-01-15T01:55:21.268Z,3.00
2019-01-15T01:57:49.971Z,2.90
2019-01-15T02:00:21.977Z,2.80
2019-01-15T02:02:50.726Z,2.80
2019-01-15T02:05:19.499Z,2.80
2019-01-15T02:07:48.543Z,2.80
2019-01-15T02:10:19.047Z,2.80
2019-01-15T02:12:48.183Z,2.80
2019-01-15T02:15:19.575Z,2.80
2019-01-15T02:17:48.530Z,2.80
2019-01-15T02:20:18.087Z,2.90
2019-01-15T02:22:46.872Z,3.00
2019-01-15T02:25:15.779Z,3.10
2019-01-15T02:27:46.178Z,3.20
2019-01-15T02:30:17.338Z,3.20
2019-01-15T02:32:46.367Z,3.30
2019-01-15T02:35:15.122Z,3.40
2019-01-15T02:37:44.397Z,3.40
2019-01-15T02:40:13.492Z,3.40
2019-01-15T02:42:46.654Z,3.50
2019-01-15T02:45:13.830Z,3.50
2019-01-15T02:47:42.653Z,3.50
2019-01-15T02:50:13.777Z,3.50
2019-01-15T02:52:43.029Z,3.40
2019-01-15T02:55:58.486Z,3.40
2019-01-15T03:00:04.004Z,3.30
2019-01-15T03:00:57.977Z,3.20
2019-01-15T03:03:26.874Z,3.20
2019-01-15T03:05:56.082Z,3.10
2019-01-15T03:08:24.767Z,3.00
2019-01-15T03:10:53.454Z,2.90
2019-01-15T03:13:22.243Z,2.80
2019-01-15T03:15:51.096Z,2.80
2019-01-15T03:18:19.975Z,2.70
2019-01-15T03:20:49.262Z,2.70
2019-01-15T03:23:17.973Z,2.60
2019-01-15T03:25:49.426Z,2.60
2019-01-15T03:28:18.440Z,2.60
2019-01-15T03:30:47.443Z,2.60
2019-01-15T03:33:16.733Z,2.50
2019-01-15T03:35:47.830Z,2.50
2019-01-15T03:38:16.537Z,2.50
2019-01-15T03:40:45.330Z,2.50
2019-01-15T03:43:14.694Z,2.40
2019-01-15T03:45:46.025Z,2.40
2019-01-15T03:48:15.086Z,2.40
2019-01-15T03:50:46.418Z,2.50
2019-01-15T03:53:15.079Z,2.50
2019-01-15T03:55:44.367Z,2.60
2019-01-15T03:58:13.328Z,2.60
2019-01-15T04:00:42.057Z,2.70
2019-01-15T04:03:10.790Z,2.80
2019-01-15T04:05:40.034Z,2.90
2019-01-15T04:08:08.774Z,3.00
2019-01-15T04:10:37.455Z,3.10
2019-01-15T04:13:11.187Z,3.10
2019-01-15T04:15:36.586Z,3.20
2019-01-15T04:18:05.392Z,3.20
2019-01-15T04:20:34.135Z,3.10
2019-01-15T04:23:02.910Z,3.10
2019-01-15T04:25:31.669Z,3.00
2019-01-15T04:28:00.770Z,3.00
2019-01-15T04:30:29.451Z,3.00
2019-01-15T04:33:00.524Z,3.00
2019-01-15T04:35:29.222Z,3.00
2019-01-15T04:37:57.934Z,3.10
2019-01-15T04:40:26.634Z,3.20
2019-01-15T04:42:55.413Z,3.30
2019-01-15T04:45:24.515Z,3.30
2019-01-15T04:47:53.399Z,3.30
2019-01-15T04:50:22.587Z,3.40
2019-01-15T04:53:02.156Z,3.50
2019-01-15T04:55:30.958Z,3.50
2019-01-15T04:58:00.631Z,3.60
2019-01-15T05:00:29.842Z,3.60
2019-01-15T05:03:01.610Z,3.60
2019-01-15T05:05:31.785Z,3.60
2019-01-15T05:08:00.702Z,3.60
2019-01-15T05:10:29.620Z,3.60
2019-01-15T05:12:59.669Z,3.60
2019-01-15T05:15:28.405Z,3.70
2019-01-15T05:17:57.069Z,3.70
2019-01-15T05:20:25.951Z,3.70
2019-01-15T05:22:54.751Z,3.80
2019-01-15T05:25:23.482Z,3.80
2019-01-15T05:27:52.214Z,3.90
2019-01-15T05:30:28.797Z,3.90
2019-01-15T05:32:57.561Z,3.90
2019-01-15T05:35:26.582Z,3.90
2019-01-15T05:37:55.294Z,3.90
2019-01-15T05:40:23.997Z,3.90
2019-01-15T05:42:52.654Z,3.90
2019-01-15T05:45:26.696Z,3.90
2019-01-15T05:47:56.190Z,3.90
2019-01-15T05:50:32.849Z,3.90
2019-01-15T05:53:01.548Z,3.90
2019-01-15T05:55:30.222Z,4.00
2019-01-15T05:57:58.910Z,4.00
2019-01-15T06:00:28.042Z,4.00
2019-01-15T06:02:56.703Z,4.00
2019-01-15T06:05:25.774Z,4.00
2019-01-15T06:07:54.418Z,4.00
2019-01-15T06:10:23.142Z,4.00
2019-01-15T06:12:52.127Z,4.00
2019-01-15T06:15:20.866Z,4.00
2019-01-15T06:17:49.834Z,4.00
2019-01-15T06:20:19.218Z,4.10
2019-01-15T06:22:48.129Z,4.10
2019-01-15T06:25:17.327Z,4.10
2019-01-15T06:27:46.150Z,4.10
2019-01-15T06:30:15.243Z,4.20
2019-01-15T06:32:43.988Z,4.20
2019-01-15T06:35:12.829Z,4.20
2019-01-15T06:37:41.597Z,4.20
2019-01-15T06:40:11.978Z,4.20
2019-01-15T06:42:41.168Z,4.20
2019-01-15T06:45:18.350Z,4.20
2019-01-15T06:47:47.184Z,4.20
2019-01-15T06:50:16.384Z,4.30
2019-01-15T06:52:45.422Z,4.30
2019-01-15T06:55:16.136Z,4.30
2019-01-15T06:57:45.063Z,4.30
2019-01-15T07:00:25.660Z,4.30
2019-01-15T07:02:55.323Z,4.30
2019-01-15T07:05:24.363Z,4.30
2019-01-15T07:07:53.133Z,4.30
2019-01-15T07:10:27.620Z,4.30
2019-01-15T07:12:56.292Z,4.30
2019-01-15T07:15:25.134Z,4.40
2019-01-15T07:17:53.841Z,4.40
2019-01-15T07:20:22.611Z,4.30
2019-01-15T07:22:51.382Z,4.30
2019-01-15T07:25:20.620Z,4.30
2019-01-15T07:27:49.369Z,4.40
2019-01-15T07:30:24.041Z,4.40
2019-01-15T07:32:52.933Z,4.40
2019-01-15T07:35:21.681Z,4.40
2019-01-15T07:37:50.378Z,4.40
2019-01-15T07:40:19.113Z,4.50
2019-01-15T07:42:47.779Z,4.50
2019-01-15T07:45:16.566Z,4.50
2019-01-15T07:47:45.844Z,4.50
2019-01-15T07:50:16.104Z,4.50
2019-01-15T07:52:45.333Z,4.60
2019-01-15T07:55:15.354Z,4.60
2019-01-15T07:57:44.110Z,4.60
2019-01-15T08:00:16.628Z,4.70
2019-01-15T08:02:45.449Z,4.60
2019-01-15T08:05:18.864Z,4.70
2019-01-15T08:07:48.683Z,4.70
2019-01-15T08:10:18.251Z,4.70
2019-01-15T08:12:47.565Z,4.70
2019-01-15T08:15:19.138Z,4.70
2019-01-15T08:17:48.434Z,4.70
2019-01-15T08:20:17.330Z,4.60
2019-01-15T08:22:46.103Z,4.70
2019-01-15T08:25:15.466Z,4.70
2019-01-15T08:27:44.215Z,4.70
2019-01-15T08:30:18.825Z,4.70
2019-01-15T08:32:47.500Z,4.70
2019-01-15T08:35:16.448Z,4.70
2019-01-15T08:37:45.336Z,4.70
2019-01-15T08:40:14.131Z,4.70
2019-01-15T08:42:42.821Z,4.80
2019-01-15T08:45:12.241Z,4.80
2019-01-15T08:47:51.928Z,4.80
2019-01-15T08:50:23.040Z,4.80
2019-01-15T08:52:51.946Z,4.80
2019-01-15T08:55:20.646Z,4.80
2019-01-15T08:57:49.544Z,4.80
2019-01-15T09:00:18.357Z,4.70
2019-01-15T09:02:47.036Z,4.70
2019-01-15T09:05:15.721Z,4.70
2019-01-15T09:07:44.569Z,4.70
2019-01-15T09:10:14.182Z,4.70
2019-01-15T09:12:43.295Z,4.70
2019-01-15T09:15:13.491Z,4.60
2019-01-15T09:17:42.304Z,4.60
2019-01-15T09:20:13.891Z,4.60
2019-01-15T09:22:43.034Z,4.60
2019-01-15T09:25:11.953Z,4.60
2019-01-15T09:27:40.717Z,4.50
2019-01-15T09:30:12.619Z,4.40
2019-01-15T09:32:41.352Z,4.50
2019-01-15T09:35:10.189Z,4.50
2019-01-15T09:37:39.321Z,4.50
2019-01-15T09:40:10.222Z,4.60
2019-01-15T09:42:39.022Z,4.60
2019-01-15T09:45:10.226Z,4.60
2019-01-15T09:47:40.903Z,4.70
2019-01-15T09:50:10.589Z,4.70
2019-01-15T09:52:39.562Z,4.80
2019-01-15T09:55:08.687Z,4.80
2019-01-15T09:57:37.529Z,4.90
2019-01-15T10:00:07.242Z,4.90
2019-01-15T10:02:35.986Z,4.90
2019-01-15T10:05:05.542Z,5.00
2019-01-15T10:07:34.370Z,5.00
2019-01-15T10:10:05.070Z,5.00
2019-01-15T10:12:34.205Z,5.10
2019-01-15T10:15:03.225Z,5.20
2019-01-15T10:17:31.887Z,5.20
2019-01-15T10:20:00.663Z,5.20
2019-01-15T10:22:29.337Z,5.10
2019-01-15T10:24:58.295Z,5.10
2019-01-15T10:27:27.554Z,5.10
2019-01-15T10:29:59.449Z,5.10
2019-01-15T10:32:46.287Z,5.10
2019-01-15T10:35:30.015Z,5.10
2019-01-15T10:37:58.777Z,5.10
2019-01-15T10:40:27.512Z,5.20
2019-01-15T10:42:56.198Z,5.20
2019-01-15T10:45:25.074Z,5.30
2019-01-15T10:47:53.782Z,5.30
2019-01-15T10:50:22.470Z,5.40
2019-01-15T10:52:51.163Z,5.60
2019-01-15T10:55:19.889Z,5.70
2019-01-15T10:57:49.047Z,5.70
2019-01-15T11:00:19.063Z,5.70
2019-01-15T11:02:47.787Z,5.80
2019-01-15T11:05:16.865Z,5.90
2019-01-15T11:07:45.582Z,5.90
2019-01-15T11:10:15.043Z,5.90
2019-01-15T11:12:44.917Z,5.90
2019-01-15T11:15:14.138Z,5.90
2019-01-15T11:17:42.805Z,6.00
2019-01-15T11:20:13.214Z,6.00
2019-01-15T11:22:41.996Z,5.90
2019-01-15T11:25:11.447Z,5.90
2019-01-15T11:27:40.647Z,5.90
2019-01-15T11:30:09.970Z,5.80
2019-01-15T11:32:38.642Z,5.80
2019-01-15T11:35:08.805Z,5.80
2019-01-15T11:37:37.665Z,5.90
2019-01-15T11:40:07.515Z,5.80
2019-01-15T11:42:36.350Z,5.70
2019-01-15T11:45:06.434Z,5.70
2019-01-15T11:47:35.244Z,5.70
2019-01-15T11:50:06.574Z,5.60
2019-01-15T11:52:35.522Z,5.50
2019-01-15T11:55:04.791Z,5.50
2019-01-15T11:57:33.498Z,5.60
2019-01-15T12:00:02.759Z,5.50
2019-01-15T12:02:39.559Z,5.60
2019-01-15T12:05:24.426Z,5.70
2019-01-15T12:08:09.198Z,5.70
2019-01-15T12:10:50.786Z,5.80
2019-01-15T12:13:38.613Z,5.80
2019-01-15T12:16:26.649Z,5.80
2019-01-15T12:19:32.606Z,5.80
2019-01-15T12:22:12.736Z,6.00
2019-01-15T12:25:08.887Z,6.00
2019-01-15T12:28:11.658Z,6.00
2019-01-15T12:31:02.514Z,6.00
2019-01-15T12:33:51.134Z,6.00
2019-01-15T12:36:28.597Z,6.00
2019-01-15T12:39:34.406Z,6.00
2019-01-15T12:42:20.926Z,6.00
2019-01-15T12:45:18.091Z,6.10
2019-01-15T12:48:06.343Z,6.00
2019-01-15T12:50:55.547Z,6.00
2019-01-15T12:53:35.031Z,5.90
2019-01-15T12:56:28.806Z,5.90
2019-01-15T12:59:31.935Z,5.80
2019-01-15T13:02:12.499Z,5.80
2019-01-15T13:05:02.926Z,5.70
2019-01-15T13:07:51.960Z,5.70
2019-01-15T13:10:38.717Z,5.70
2019-01-15T13:13:35.356Z,5.70
2019-01-15T13:16:22.436Z,5.70
2019-01-15T13:19:12.666Z,5.70
2019-01-15T13:22:06.865Z,5.70
2019-01-15T13:24:54.754Z,5.70
2019-01-15T13:27:41.042Z,5.70
2019-01-15T13:30:20.530Z,5.60
2019-01-15T13:33:15.033Z,5.60
2019-01-15T13:35:56.658Z,5.60
2019-01-15T13:38:45.285Z,5.70
2019-01-15T13:41:35.369Z,5.70
2019-01-15T13:44:35.377Z,5.70
2019-01-15T13:47:18.544Z,5.70
2019-01-15T13:49:58.617Z,5.80
2019-01-15T13:52:43.258Z,5.80
2019-01-15T13:55:29.686Z,5.80
2019-01-15T13:58:12.842Z,5.80
2019-01-15T14:00:59.506Z,5.80
2019-01-15T14:03:50.719Z,5.80
2019-01-15T14:06:47.708Z,5.80
2019-01-15T14:09:24.765Z,5.90
2019-01-15T14:12:03.492Z,5.90
2019-01-15T14:14:48.559Z,5.90
2019-01-15T14:17:48.628Z,5.90
2019-01-15T14:20:35.557Z,5.90
2019-01-15T14:23:16.569Z,6.00
2019-01-15T14:26:02.932Z,6.00
2019-01-15T14:28:51.816Z,6.00
2019-01-15T14:31:31.674Z,6.00
2019-01-15T14:34:19.476Z,6.00
2019-01-15T14:37:06.396Z,5.90
2019-01-15T14:39:51.463Z,5.90
2019-01-15T14:42:41.750Z,6.00
2019-01-15T14:45:27.699Z,5.90
2019-01-15T14:48:14.764Z,6.00
2019-01-15T14:50:56.872Z,6.00
2019-01-15T14:53:41.013Z,6.00
2019-01-15T14:56:28.990Z,6.00
2019-01-15T14:59:12.094Z,6.00
2019-01-15T15:02:00.152Z,6.00
2019-01-15T15:05:06.307Z,6.00
2019-01-15T15:07:54.268Z,6.10
2019-01-15T15:10:36.465Z,6.10
2019-01-15T15:13:16.735Z,6.10
2019-01-15T15:16:19.756Z,6.10
2019-01-15T15:18:58.434Z,6.10
2019-01-15T15:22:03.309Z,6.20
2019-01-15T15:24:53.976Z,6.20
2019-01-15T15:27:40.945Z,6.20
2019-01-15T15:30:30.018Z,6.20
2019-01-15T15:33:24.129Z,6.20
2019-01-15T15:36:22.328Z,6.20
2019-01-15T15:39:09.283Z,6.30
2019-01-15T15:41:57.093Z,6.30
2019-01-15T15:45:03.181Z,6.30
2019-01-15T15:47:50.324Z,6.30
2019-01-15T15:50:27.093Z,6.20
2019-01-15T15:53:10.146Z,6.30
2019-01-15T15:56:02.319Z,6.20
2019-01-15T15:58:45.802Z,6.30
2019-01-15T16:01:40.166Z,6.30
2019-01-15T16:04:27.452Z,6.30
2019-01-15T16:07:14.654Z,6.30
2019-01-15T16:10:02.139Z,6.30
2019-01-15T16:13:02.383Z,6.30
2019-01-15T16:15:37.580Z,6.40
2019-01-15T16:18:26.194Z,6.30
2019-01-15T16:21:06.469Z,6.30
2019-01-15T16:23:54.062Z,6.30
2019-01-15T16:26:40.609Z,6.30
2019-01-15T16:29:24.267Z,6.40
2019-01-15T16:32:27.374Z,6.40
2019-01-15T16:35:14.125Z,6.40
2019-01-15T16:37:52.814Z,6.50
2019-01-15T16:40:49.897Z,6.50
2019-01-15T16:43:49.075Z,6.50
2019-01-15T16:46:31.935Z,6.60
2019-01-15T16:49:12.026Z,6.60
2019-01-15T16:51:58.736Z,6.60
2019-01-15T16:54:34.998Z,6.60
2019-01-15T16:57:15.907Z,6.70
2019-01-15T17:00:15.915Z,6.70
2019-01-15T17:03:15.275Z,6.70
2019-01-15T17:05:58.646Z,6.70
2019-01-15T17:08:46.872Z,6.70
2019-01-15T17:11:33.185Z,6.80
2019-01-15T17:14:19.878Z,6.80
2019-01-15T17:17:06.706Z,6.80
2019-01-15T17:19:44.966Z,6.80
2019-01-15T17:22:44.690Z,6.70
2019-01-15T17:25:38.217Z,6.70
2019-01-15T17:28:22.323Z,6.80
2019-01-15T17:31:17.361Z,6.70
2019-01-15T17:34:05.391Z,6.80
2019-01-15T17:36:44.118Z,6.80
2019-01-15T17:39:34.579Z,6.80
2019-01-15T17:42:20.846Z,6.90
2019-01-15T17:45:23.717Z,6.90
2019-01-15T17:48:07.539Z,6.90
2019-01-15T17:50:52.882Z,7.00
2019-01-15T17:53:40.639Z,7.00
2019-01-15T17:56:29.048Z,7.10
2019-01-15T17:59:18.606Z,7.00
2019-01-15T18:02:12.362Z,7.10
2019-01-15T18:05:03.311Z,7.10
2019-01-15T18:07:51.123Z,7.10
2019-01-15T18:10:41.879Z,7.10
2019-01-15T18:13:31.827Z,7.10
2019-01-15T18:16:18.710Z,7.10
2019-01-15T18:18:56.888Z,7.10
2019-01-15T18:21:47.965Z,7.10
2019-01-15T18:24:34.518Z,7.00
2019-01-15T18:27:18.627Z,7.00
2019-01-15T18:30:10.900Z,7.10
2019-01-15T18:32:58.945Z,7.10
2019-01-15T18:35:41.554Z,7.10
2019-01-15T18:38:33.867Z,7.10
2019-01-15T18:41:18.297Z,7.10
2019-01-15T18:44:04.578Z,7.10
2019-01-15T18:46:46.047Z,7.10
2019-01-15T18:49:50.090Z,7.10
2019-01-15T18:52:38.102Z,7.10
2019-01-15T18:55:27.384Z,7.10
2019-01-15T18:58:12.752Z,7.20
2019-01-15T19:01:05.684Z,7.20
2019-01-15T19:03:53.949Z,7.20
2019-01-15T19:06:37.096Z,7.10
2019-01-15T19:09:22.261Z,7.20
2019-01-15T19:12:08.489Z,7.20
2019-01-15T19:14:56.315Z,7.30
2019-01-15T19:17:42.775Z,7.30
2019-01-15T19:20:36.665Z,7.30
2019-01-15T19:23:24.810Z,7.30
2019-01-15T19:26:16.847Z,7.30
2019-01-15T19:29:03.634Z,7.30
2019-01-15T19:32:09.706Z,7.30
2019-01-15T19:34:56.827Z,7.30
2019-01-15T19:37:37.190Z,7.30
2019-01-15T19:40:34.534Z,7.30
2019-01-15T19:43:21.247Z,7.30
2019-01-15T19:46:01.454Z,7.30
2019-01-15T19:49:04.711Z,7.20
2019-01-15T19:52:04.269Z,7.20
2019-01-15T19:54:50.742Z,7.20
2019-01-15T19:57:39.413Z,7.20
2019-01-15T20:00:18.693Z,7.30
2019-01-15T20:03:05.400Z,7.30
2019-01-15T20:05:59.586Z,7.30
2019-01-15T20:08:56.820Z,7.30
2019-01-15T20:11:43.346Z,7.30
2019-01-15T20:14:34.454Z,7.30
2019-01-15T20:17:20.886Z,7.30
2019-01-15T20:20:08.286Z,7.30
2019-01-15T20:22:54.494Z,7.40
2019-01-15T20:25:39.174Z,7.40
2019-01-15T20:28:30.403Z,7.40
2019-01-15T20:31:11.400Z,7.40
2019-01-15T20:33:58.347Z,7.40
2019-01-15T20:36:39.371Z,7.30
2019-01-15T20:39:21.498Z,7.30
2019-01-15T20:42:04.472Z,7.30
2019-01-15T20:44:52.398Z,7.30
2019-01-15T20:47:46.499Z,7.30
2019-01-15T20:50:35.710Z,7.30
2019-01-15T20:53:12.170Z,7.30
2019-01-15T20:56:18.098Z,7.20
2019-01-15T20:59:04.251Z,7.30
2019-01-15T21:01:58.058Z,7.30
2019-01-15T21:04:49.154Z,7.30
2019-01-15T21:07:29.897Z,7.30
2019-01-15T21:10:16.606Z,7.30
2019-01-15T21:13:03.442Z,7.30
2019-01-15T21:15:51.352Z,7.30
2019-01-15T21:18:40.254Z,7.20
2019-01-15T21:21:19.958Z,7.20
2019-01-15T21:24:25.975Z,7.20
2019-01-15T21:27:12.570Z,7.20
2019-01-15T21:29:47.869Z,7.30
2019-01-15T21:32:35.213Z,7.20
2019-01-15T21:35:36.199Z,7.30
2019-01-15T21:38:19.361Z,7.30
2019-01-15T21:41:03.166Z,7.30
2019-01-15T21:43:40.699Z,7.30
2019-01-15T21:46:25.065Z,7.30
2019-01-15T21:49:13.513Z,7.30
2019-01-15T21:52:01.823Z,7.30
2019-01-15T21:55:07.866Z,7.30
2019-01-15T21:57:53.981Z,7.30
2019-01-15T22:00:34.494Z,7.30
2019-01-15T22:03:22.414Z,7.30
2019-01-15T22:06:11.378Z,7.30
2019-01-15T22:08:57.942Z,7.30
2019-01-15T22:11:42.345Z,7.30
2019-01-15T22:14:28.696Z,7.30
2019-01-15T22:17:12.360Z,7.30
2019-01-15T22:19:58.754Z,7.40
2019-01-15T22:22:39.882Z,7.40
2019-01-15T22:25:21.502Z,7.40
2019-01-15T22:28:01.671Z,7.40
2019-01-15T22:30:48.255Z,7.40
2019-01-15T22:33:51.337Z,7.40
2019-01-15T22:36:44.131Z,7.50
2019-01-15T22:39:24.290Z,7.50
2019-01-15T22:42:10.758Z,7.40
2019-01-15T22:44:53.369Z,7.40
2019-01-15T22:47:54.805Z,7.40
2019-01-15T22:50:32.646Z,7.50
2019-01-15T22:53:35.777Z,7.40
2019-01-15T22:56:20.102Z,7.40
2019-01-15T22:59:07.979Z,7.40
2019-01-15T23:01:53.367Z,7.50
2019-01-15T23:04:31.606Z,7.50
2019-01-15T23:07:29.347Z,7.50
2019-01-15T23:10:17.261Z,7.50
2019-01-15T23:12:52.841Z,7.50
2019-01-15T23:15:31.578Z,7.50
2019-01-15T23:18:35.042Z,7.50
2019-01-15T23:21:32.246Z,7.50
2019-01-15T23:24:38.390Z,7.50
2019-01-15T23:27:23.993Z,7.50
2019-01-15T23:30:05.474Z,7.50
2019-01-15T23:32:58.279Z,7.50
2019-01-15T23:35:36.933Z,7.50
2019-01-15T23:38:13.329Z,7.50
2019-01-15T23:40:59.828Z,7.60
2019-01-15T23:43:47.969Z,7.60
2019-01-15T23:46:34.317Z,7.60
2019-01-15T23:49:30.988Z,7.60
2019-01-15T23:52:09.234Z,7.60
2019-01-15T23:54:55.702Z,7.60
2019-01-15T23:57:42.020Z,7.60
